Terminal Aerodrome Forecast
Issued by NWS La Crosse, WI

Home | Current Version | Previous Version | Text Only | Print | Product List | Glossary On
Versions: 1 2 3 4 5 6 7 8 9 10 11 12 13 14 15 16 17 18 19 20 21 22 23 24 25 26 27 28 29 30 31 32 33
000
FTUS43 KARX 251341 AAA
TAFRST
TAF AMD
KRST 251341Z 2514/2612 17013KT P6SM -SHRA VCTS BKN015CB
      TEMPO 2514/2515 2SM TSRA BKN008CB
     FM251600 14013G21KT P6SM VCSH SCT015 BKN035
     FM252000 15011KT P6SM BKN030
     FM260100 15006KT P6SM SCT030
     FM260600 18006KT 4SM BR SCT015
      TEMPO 2609/2612 2SM BR BKN007=

USA.gov is the U.S. government's official web portal to all federal, state and local government web resources and services.